Time,TemperatureF,DewpointF,PressureIn,WindDirection,WindDirectionDegrees,WindSpeedMPH,WindSpeedGustMPH,Humidity,HourlyPrecipIn,Conditions,Clouds,dailyrainin,SolarRadiationWatts/m^2,SoftwareType,DateUTC
2013-05-19 00:21:00,48.0,47.0,-100.00,NW,317,2.0,3.0,97,0.00,,,0.29,0.000000,,2013-05-19 06:21:00,
2013-05-19 00:32:00,48.0,47.0,-100.00,NW,317,2.0,3.0,97,0.00,,,0.29,0.000000,,2013-05-19 06:32:00,
2013-05-19 00:42:00,48.0,47.0,-100.00,NW,317,2.0,3.0,97,0.00,,,0.29,0.000000,,2013-05-19 06:42:00,
2013-05-19 00:52:00,48.0,47.0,-100.00,NW,317,2.0,3.0,97,0.00,,,0.29,0.000000,,2013-05-19 06:52:00,
2013-05-19 01:21:00,52.0,49.0,-100.00,NNW,330,5.0,12.0,89,0.00,,,0.29,0.000000,,2013-05-19 07:21:00,
2013-05-19 01:32:00,52.0,49.0,-100.00,NNW,330,5.0,12.0,89,0.00,,,0.29,0.000000,,2013-05-19 07:32:00,
2013-05-19 01:42:00,52.0,49.0,-100.00,NNW,330,5.0,12.0,89,0.00,,,0.29,0.000000,,2013-05-19 07:42:00,
2013-05-19 01:52:00,52.0,49.0,-100.00,NNW,330,5.0,12.0,89,0.00,,,0.29,0.000000,,2013-05-19 07:52:00,
2013-05-19 02:22:00,52.0,49.0,-100.00,NNW,341,4.0,14.0,88,0.00,,,0.29,0.000000,,2013-05-19 08:22:00,
2013-05-19 02:32:00,52.0,49.0,-100.00,NNW,341,4.0,14.0,88,0.00,,,0.29,0.000000,,2013-05-19 08:32:00,
2013-05-19 02:42:00,52.0,49.0,-100.00,NNW,341,4.0,14.0,88,0.00,,,0.29,0.000000,,2013-05-19 08:42:00,
2013-05-19 02:52:00,52.0,49.0,-100.00,NNW,341,4.0,14.0,88,0.00,,,0.29,0.000000,,2013-05-19 08:52:00,
2013-05-19 03:21:00,51.0,48.0,-100.00,NNW,330,4.0,10.0,90,0.01,,,0.30,0.000000,,2013-05-19 09:21:00,
2013-05-19 03:32:00,51.0,48.0,-100.00,NNW,330,4.0,10.0,90,0.01,,,0.30,0.000000,,2013-05-19 09:32:00,
2013-05-19 03:43:00,51.0,48.0,-100.00,NNW,330,4.0,10.0,90,0.01,,,0.30,0.000000,,2013-05-19 09:43:00,
2013-05-19 03:53:00,51.0,48.0,-100.00,NNW,330,4.0,10.0,90,0.01,,,0.30,0.000000,,2013-05-19 09:53:00,
2013-05-19 04:23:00,49.0,48.0,-100.00,NW,323,1.0,5.0,95,0.02,,,0.32,0.000000,,2013-05-19 10:23:00,
2013-05-19 04:33:00,49.0,48.0,-100.00,NW,323,1.0,5.0,95,0.02,,,0.32,0.000000,,2013-05-19 10:33:00,
2013-05-19 04:42:00,49.0,48.0,-100.00,NW,323,1.0,5.0,95,0.02,,,0.32,0.000000,,2013-05-19 10:42:00,
2013-05-19 04:52:00,49.0,48.0,-100.00,NW,323,1.0,5.0,95,0.02,,,0.32,0.000000,,2013-05-19 10:52:00,
2013-05-19 05:21:00,50.0,48.0,-100.00,North,11,2.0,8.0,93,0.00,,,0.32,0.000000,,2013-05-19 11:21:00,
2013-05-19 05:32:00,50.0,48.0,-100.00,North,11,2.0,8.0,93,0.00,,,0.32,0.000000,,2013-05-19 11:32:00,
2013-05-19 05:42:00,50.0,48.0,-100.00,North,11,2.0,8.0,93,0.00,,,0.32,0.000000,,2013-05-19 11:42:00,
2013-05-19 05:52:00,50.0,48.0,-100.00,North,11,2.0,8.0,93,0.00,,,0.32,0.000000,,2013-05-19 11:52:00,
2013-05-19 06:22:00,48.0,47.0,-100.00,NE,38,0.0,3.0,97,0.00,,,0.32,4.000000,,2013-05-19 12:22:00,
2013-05-19 06:32:00,48.0,47.0,-100.00,NE,38,0.0,3.0,97,0.00,,,0.32,4.000000,,2013-05-19 12:32:00,
2013-05-19 06:42:00,48.0,47.0,-100.00,NE,38,0.0,3.0,97,0.00,,,0.32,4.000000,,2013-05-19 12:42:00,
2013-05-19 06:52:00,48.0,47.0,-100.00,NE,38,0.0,3.0,97,0.00,,,0.32,4.000000,,2013-05-19 12:52:00,
2013-05-19 07:21:00,49.0,48.0,-100.00,NNW,331,2.0,6.0,97,0.00,,,0.32,34.000000,,2013-05-19 13:21:00,
2013-05-19 07:32:00,49.0,48.0,-100.00,NNW,331,2.0,6.0,97,0.00,,,0.32,34.000000,,2013-05-19 13:32:00,
2013-05-19 07:42:00,49.0,48.0,-100.00,NNW,331,2.0,6.0,97,0.00,,,0.32,34.000000,,2013-05-19 13:42:00,
2013-05-19 07:52:00,49.0,48.0,-100.00,NNW,331,2.0,6.0,97,0.00,,,0.32,34.000000,,2013-05-19 13:52:00,
2013-05-19 08:21:00,52.0,48.0,-100.00,NW,318,3.0,9.0,86,0.00,,,0.32,111.000000,,2013-05-19 14:21:00,
2013-05-19 08:32:00,52.0,48.0,-100.00,NW,318,3.0,9.0,86,0.00,,,0.32,111.000000,,2013-05-19 14:32:00,
2013-05-19 08:42:00,52.0,48.0,-100.00,NW,318,3.0,9.0,86,0.00,,,0.32,111.000000,,2013-05-19 14:42:00,
2013-05-19 08:51:00,52.0,48.0,-100.00,NW,318,3.0,9.0,86,0.00,,,0.32,111.000000,,2013-05-19 14:51:00,
2013-05-19 09:22:00,52.0,49.0,-100.00,NNW,345,4.0,7.0,91,0.00,,,0.32,119.000000,,2013-05-19 15:22:00,
2013-05-19 09:33:00,52.0,49.0,-100.00,NNW,345,4.0,7.0,91,0.00,,,0.32,119.000000,,2013-05-19 15:33:00,
2013-05-19 09:43:00,52.0,49.0,-100.00,NNW,345,4.0,7.0,91,0.00,,,0.32,119.000000,,2013-05-19 15:43:00,
2013-05-19 09:53:00,52.0,49.0,-100.00,NNW,345,4.0,7.0,91,0.00,,,0.32,119.000000,,2013-05-19 15:53:00,
2013-05-19 10:23:00,53.0,50.0,-100.00,NNW,340,6.0,15.0,88,0.00,,,0.32,149.000000,,2013-05-19 16:23:00,
2013-05-19 10:32:00,53.0,50.0,-100.00,NNW,340,6.0,15.0,88,0.00,,,0.32,149.000000,,2013-05-19 16:32:00,
2013-05-19 10:42:00,53.0,50.0,-100.00,NNW,340,6.0,15.0,88,0.00,,,0.32,149.000000,,2013-05-19 16:42:00,
2013-05-19 10:52:00,53.0,50.0,-100.00,NNW,340,6.0,15.0,88,0.00,,,0.32,149.000000,,2013-05-19 16:52:00,
2013-05-19 11:22:00,55.0,50.0,-100.00,NNW,341,9.0,17.0,82,0.00,,,0.32,328.000000,,2013-05-19 17:22:00,
2013-05-19 11:32:00,55.0,50.0,-100.00,NNW,341,9.0,17.0,82,0.00,,,0.32,328.000000,,2013-05-19 17:32:00,
2013-05-19 11:42:00,55.0,50.0,-100.00,NNW,341,9.0,17.0,82,0.00,,,0.32,328.000000,,2013-05-19 17:42:00,
2013-05-19 11:52:00,55.0,50.0,-100.00,NNW,341,9.0,17.0,82,0.00,,,0.32,328.000000,,2013-05-19 17:52:00,
2013-05-19 12:22:00,53.0,48.0,-100.00,NNW,338,8.0,18.0,83,0.01,,,0.33,330.000000,,2013-05-19 18:22:00,
2013-05-19 12:32:00,53.0,48.0,-100.00,NNW,338,8.0,18.0,83,0.01,,,0.33,330.000000,,2013-05-19 18:32:00,
2013-05-19 12:42:00,53.0,48.0,-100.00,NNW,338,8.0,18.0,83,0.01,,,0.33,330.000000,,2013-05-19 18:42:00,
2013-05-19 12:52:00,53.0,48.0,-100.00,NNW,338,8.0,18.0,83,0.01,,,0.33,330.000000,,2013-05-19 18:52:00,
2013-05-19 13:22:00,54.0,50.0,-100.00,North,353,6.0,12.0,85,0.03,,,0.36,228.000000,,2013-05-19 19:22:00,
2013-05-19 13:32:00,54.0,50.0,-100.00,North,353,6.0,12.0,85,0.03,,,0.36,228.000000,,2013-05-19 19:32:00,
2013-05-19 13:42:00,54.0,50.0,-100.00,North,353,6.0,12.0,85,0.03,,,0.36,228.000000,,2013-05-19 19:42:00,
2013-05-19 13:52:00,54.0,50.0,-100.00,North,353,6.0,12.0,85,0.03,,,0.36,228.000000,,2013-05-19 19:52:00,
2013-05-19 14:21:00,53.0,50.0,-100.00,NNW,339,4.0,11.0,88,0.04,,,-99.99,281.000000,,2013-05-19 20:21:00,
2013-05-19 14:32:00,53.0,50.0,-100.00,NNW,339,4.0,11.0,88,0.04,,,-99.99,281.000000,,2013-05-19 20:32:00,
2013-05-19 14:42:00,53.0,50.0,-100.00,NNW,339,4.0,11.0,88,0.04,,,-99.99,281.000000,,2013-05-19 20:42:00,
2013-05-19 14:52:00,53.0,50.0,-100.00,NNW,339,4.0,11.0,88,0.04,,,-99.99,281.000000,,2013-05-19 20:52:00,
2013-05-19 15:22:00,52.0,49.0,-100.00,NNW,342,6.0,12.0,89,0.04,,,0.37,226.000000,,2013-05-19 21:22:00,
2013-05-19 15:32:00,52.0,49.0,-100.00,NNW,342,6.0,12.0,89,0.04,,,0.37,226.000000,,2013-05-19 21:32:00,
2013-05-19 15:43:00,52.0,49.0,-100.00,NNW,342,6.0,12.0,89,0.04,,,0.37,226.000000,,2013-05-19 21:43:00,
2013-05-19 15:53:00,52.0,49.0,-100.00,NNW,342,6.0,12.0,89,0.04,,,0.37,226.000000,,2013-05-19 21:53:00,
2013-05-19 16:23:00,53.0,50.0,-100.00,NNW,342,6.0,15.0,91,0.01,,,0.25,214.000000,,2013-05-19 22:23:00,
2013-05-19 16:33:00,53.0,50.0,-100.00,NNW,342,6.0,15.0,91,0.01,,,0.25,214.000000,,2013-05-19 22:33:00,
2013-05-19 16:42:00,53.0,50.0,-100.00,NNW,342,6.0,15.0,91,0.01,,,0.25,214.000000,,2013-05-19 22:42:00,
2013-05-19 16:52:00,53.0,50.0,-100.00,NNW,342,6.0,15.0,91,0.01,,,0.25,214.000000,,2013-05-19 22:52:00,
2013-05-19 17:22:00,50.0,48.0,-100.00,NNW,333,7.0,17.0,93,0.01,,,0.18,182.000000,,2013-05-19 23:22:00,
2013-05-19 17:32:00,50.0,48.0,-100.00,NNW,333,7.0,17.0,93,0.01,,,0.18,182.000000,,2013-05-19 23:32:00,
2013-05-19 17:42:00,50.0,48.0,-100.00,NNW,333,7.0,17.0,93,0.01,,,0.18,182.000000,,2013-05-19 23:42:00,
2013-05-19 17:52:00,50.0,48.0,-100.00,NNW,333,7.0,17.0,93,0.01,,,0.18,182.000000,,2013-05-19 23:52:00,
2013-05-19 18:22:00,49.0,47.0,-100.00,NNW,347,7.0,18.0,94,0.02,,,0.20,78.000000,,2013-05-20 00:22:00,
2013-05-19 18:32:00,49.0,47.0,-100.00,NNW,347,7.0,18.0,94,0.02,,,0.20,78.000000,,2013-05-20 00:32:00,
2013-05-19 18:42:00,49.0,47.0,-100.00,NNW,347,7.0,18.0,94,0.02,,,0.20,78.000000,,2013-05-20 00:42:00,
2013-05-19 18:52:00,49.0,47.0,-100.00,NNW,347,7.0,18.0,94,0.02,,,0.20,78.000000,,2013-05-20 00:52:00,
2013-05-19 19:21:00,48.0,46.0,-100.00,NNW,331,7.0,21.0,93,0.02,,,0.22,27.000000,,2013-05-20 01:21:00,
2013-05-19 19:31:00,48.0,46.0,-100.00,NNW,331,7.0,21.0,93,0.02,,,0.22,27.000000,,2013-05-20 01:31:00,
2013-05-19 19:42:00,48.0,46.0,-100.00,NNW,331,7.0,21.0,93,0.02,,,0.22,27.000000,,2013-05-20 01:42:00,
2013-05-19 19:52:00,48.0,46.0,-100.00,NNW,331,7.0,21.0,93,0.02,,,0.22,27.000000,,2013-05-20 01:52:00,
2013-05-19 20:21:00,48.0,46.0,-100.00,NNW,341,7.0,23.0,92,0.03,,,0.25,10.000000,,2013-05-20 02:21:00,
2013-05-19 20:31:00,48.0,46.0,-100.00,NNW,341,7.0,23.0,92,0.03,,,0.25,10.000000,,2013-05-20 02:31:00,
2013-05-19 20:42:00,48.0,46.0,-100.00,NNW,341,7.0,23.0,92,0.03,,,0.25,10.000000,,2013-05-20 02:42:00,
2013-05-19 20:51:00,48.0,46.0,-100.00,NNW,341,7.0,23.0,92,0.03,,,0.25,10.000000,,2013-05-20 02:51:00,
2013-05-19 21:21:00,47.0,45.0,-100.00,NNW,336,8.0,17.0,92,0.03,,,0.28,1.000000,,2013-05-20 03:21:00,
2013-05-19 21:33:00,47.0,45.0,-100.00,NNW,336,8.0,17.0,92,0.03,,,0.28,1.000000,,2013-05-20 03:33:00,
2013-05-19 21:43:00,47.0,45.0,-100.00,NNW,336,8.0,17.0,92,0.03,,,0.28,1.000000,,2013-05-20 03:43:00,
2013-05-19 21:52:00,47.0,45.0,-100.00,NNW,336,8.0,17.0,92,0.03,,,0.28,1.000000,,2013-05-20 03:52:00,
2013-05-19 22:23:00,46.0,44.0,-100.00,NNW,339,7.0,29.0,92,0.02,,,0.29,0.000000,,2013-05-20 04:23:00,
2013-05-19 22:33:00,46.0,44.0,-100.00,NNW,339,7.0,29.0,92,0.02,,,0.29,0.000000,,2013-05-20 04:33:00,
2013-05-19 22:42:00,46.0,44.0,-100.00,NNW,339,7.0,29.0,92,0.02,,,0.29,0.000000,,2013-05-20 04:42:00,
2013-05-19 22:52:00,46.0,44.0,-100.00,NNW,339,7.0,29.0,92,0.02,,,0.29,0.000000,,2013-05-20 04:52:00,
2013-05-19 23:22:00,46.0,44.0,-100.00,NNW,335,10.0,26.0,92,0.02,,,0.31,0.000000,,2013-05-20 05:22:00,
2013-05-19 23:32:00,46.0,44.0,-100.00,NNW,335,10.0,26.0,92,0.02,,,0.31,0.000000,,2013-05-20 05:32:00,
2013-05-19 23:42:00,46.0,44.0,-100.00,NNW,335,10.0,26.0,92,0.02,,,0.31,0.000000,,2013-05-20 05:42:00,
2013-05-19 23:51:00,46.0,44.0,-100.00,NNW,335,10.0,26.0,92,0.02,,,0.31,0.000000,,2013-05-20 05:51:00,